Time;durP1;ratioP1;P1;durP2;ratioP2;P2;SDS_P1;SDS_P2;PMS_P1;PMS_P2;Temp;Humidity;BMP_temperature;BMP_pressure;BME280_temperature;BME280_humidity;BME280_pressure;Samples;Min_cycle;Max_cycle;Signal;HPM_P1;HPM_P2
2021/12/17 00:00:09;;;;;;;103.07;35.90;;;;;;;11.84;67.84;103335.13;689104;28;1232;-77
2021/12/17 00:00:34;;;;;;;110.10;35.65;;;;;;;11.79;67.82;103332.22;684829;28;2098;-76
2021/12/17 00:01:00;;;;;;;117.60;36.65;;;;;;;11.74;67.82;103318.84;685738;28;820;-76
2021/12/17 00:01:36;;;;;;;109.50;36.65;;;;;;;11.83;67.70;103334.22;685270;28;1937;-77
2021/12/17 00:05:09;;;;;;;106.97;36.53;;;;;;;11.74;67.85;103317.94;690733;28;1000;-77
2021/12/17 00:05:51;;;;;;;102.28;35.97;;;;;;;11.75;67.79;103323.25;688081;28;1676;-77
2021/12/17 00:06:18;;;;;;;103.82;36.17;;;;;;;11.75;67.76;103319.75;686335;28;2086;-76
2021/12/17 00:06:47;;;;;;;106.00;36.30;;;;;;;11.73;67.82;103317.03;689617;28;823;-77
2021/12/17 00:07:14;;;;;;;101.85;36.33;;;;;;;11.70;67.83;103316.84;688191;28;1094;-77
2021/12/17 00:07:36;;;;;;;102.10;36.20;;;;;;;11.81;67.57;103327.09;682859;28;1316;-76
2021/12/17 00:07:57;;;;;;;103.72;35.33;;;;;;;11.75;67.64;103315.41;682868;29;1292;-76
2021/12/17 00:08:21;;;;;;;109.55;36.00;;;;;;;11.71;67.82;103316.03;685762;28;1310;-76
2021/12/17 00:08:45;;;;;;;105.63;35.15;;;;;;;11.72;67.77;103315.22;689123;28;1280;-77
2021/12/17 00:09:06;;;;;;;111.18;35.90;;;;;;;11.70;67.97;103316.84;690607;28;996;-77
2021/12/17 00:09:27;;;;;;;108.72;35.70;;;;;;;11.74;67.96;103321.44;685223;28;1192;-77
2021/12/17 00:09:49;;;;;;;104.82;35.20;;;;;;;11.70;67.85;103316.84;685422;28;1390;-77
2021/12/17 00:10:17;;;;;;;95.93;34.75;;;;;;;11.69;67.93;103308.88;685432;28;1496;-77
2021/12/17 00:10:38;;;;;;;100.50;35.50;;;;;;;11.71;68.13;103321.25;687451;28;1373;-77
2021/12/17 00:10:59;;;;;;;104.28;35.53;;;;;;;11.68;67.82;103310.59;688263;28;847;-77
2021/12/17 00:11:21;;;;;;;106.22;35.83;;;;;;;11.69;67.97;103320.28;686651;28;1162;-77
2021/12/17 00:11:41;;;;;;;100.13;34.65;;;;;;;11.71;68.01;103322.97;687782;28;1142;-77
2021/12/17 00:12:03;;;;;;;97.53;35.00;;;;;;;11.69;68.22;103316.75;688220;28;1077;-76
2021/12/17 00:12:27;;;;;;;99.72;35.58;;;;;;;11.70;67.88;103315.94;685412;28;1296;-76
2021/12/17 00:12:47;;;;;;;106.45;37.17;;;;;;;11.64;67.89;103305.94;688054;28;1388;-77
2021/12/17 00:13:10;;;;;;;105.22;36.58;;;;;;;11.70;67.96;103316.84;690779;28;1081;-76
2021/12/17 00:13:31;;;;;;;102.78;36.65;;;;;;;11.64;67.91;103311.19;688310;28;756;-76
2021/12/17 00:13:54;;;;;;;102.00;37.47;;;;;;;11.67;68.04;103321.84;690528;28;1156;-77
2021/12/17 00:14:24;;;;;;;106.80;39.03;;;;;;;11.59;68.32;103305.66;688986;28;1119;-77
2021/12/17 00:14:48;;;;;;;103.88;38.35;;;;;;;11.58;68.24;103302.94;687638;28;1085;-76
2021/12/17 00:15:11;;;;;;;105.90;38.55;;;;;;;11.65;68.20;103320.88;688176;28;1208;-77
2021/12/17 00:15:31;;;;;;;100.30;36.38;;;;;;;11.63;68.19;103314.59;687756;28;1894;-77
2021/12/17 00:15:52;;;;;;;99.03;34.95;;;;;;;11.67;68.01;103315.75;688241;28;1122;-76
2021/12/17 00:16:17;;;;;;;93.80;33.90;;;;;;;11.69;68.11;103320.28;691266;28;1270;-76
2021/12/17 00:16:40;;;;;;;95.25;34.28;;;;;;;11.63;68.16;103302.41;688831;28;887;-77
2021/12/17 00:17:03;;;;;;;96.07;34.17;;;;;;;11.63;68.24;103309.38;685482;28;1117;-76
2021/12/17 00:17:29;;;;;;;91.68;32.72;;;;;;;11.66;67.92;103314.81;688648;28;1241;-77
2021/12/17 00:17:57;;;;;;;87.60;33.47;;;;;;;11.66;68.07;103309.59;686612;28;1286;-76
2021/12/17 00:18:28;;;;;;;91.75;33.58;;;;;;;11.72;67.80;103307.38;684087;28;1037;-77
2021/12/17 00:19:05;;;;;;;105.13;34.97;;;;;;;11.73;67.99;103318.75;684885;28;1446;-77
2021/12/17 00:19:55;;;;;;;100.03;35.35;;;;;;;11.65;67.86;103308.72;683237;28;1267;-76
2021/12/17 00:40:32;;;;;;;81.50;31.80;;;;;;;11.71;67.99;103313.41;682148;29;1101;-77
2021/12/17 00:48:36;;;;;;;79.90;33.40;;;;;;;11.70;67.92;103314.22;686076;28;1094;-76
2021/12/17 00:48:57;;;;;;;79.40;32.03;;;;;;;11.68;67.83;103313.19;688245;28;720;-77
2021/12/17 00:49:24;;;;;;;78.20;31.48;;;;;;;11.75;67.83;103312.78;687500;28;1103;-77
2021/12/17 00:50:09;;;;;;;78.80;30.83;;;;;;;11.72;67.75;103312.59;685472;28;782;-77
2021/12/17 00:52:16;;;;;;;88.40;33.63;;;;;;;11.59;67.88;103307.34;685278;28;1048;-77
2021/12/17 00:52:39;;;;;;;85.80;31.58;;;;;;;11.65;68.44;103307.78;683433;28;1295;-77
2021/12/17 00:53:00;;;;;;;84.10;29.75;;;;;;;11.63;68.26;103312.88;682998;28;1501;-76
2021/12/17 00:53:25;;;;;;;87.00;30.87;;;;;;;11.61;68.30;103311.00;688459;28;1592;-76
2021/12/17 00:53:46;;;;;;;87.88;32.75;;;;;;;11.66;68.38;103314.81;689801;28;807;-77
2021/12/17 00:54:19;;;;;;;82.30;32.25;;;;;;;11.62;68.15;103307.56;690611;28;1512;-77
2021/12/17 00:54:42;;;;;;;72.32;30.30;;;;;;;11.65;68.11;103298.25;685440;28;908;-77
2021/12/17 00:55:05;;;;;;;74.32;31.17;;;;;;;11.70;68.18;103314.22;686118;28;2029;-77
2021/12/17 00:55:26;;;;;;;75.03;32.08;;;;;;;11.73;68.09;103317.03;685460;28;1817;-77
2021/12/17 00:55:47;;;;;;;75.53;30.60;;;;;;;11.68;68.24;103310.59;684958;28;1958;-77
2021/12/17 00:56:08;;;;;;;78.45;30.00;;;;;;;11.68;68.02;103307.09;682625;28;1592;-77
2021/12/17 00:56:28;;;;;;;79.60;29.00;;;;;;;11.67;67.84;103310.50;682640;29;1294;-77
2021/12/17 00:56:52;;;;;;;76.30;29.23;;;;;;;11.66;67.92;103304.34;687478;28;1457;-77
2021/12/17 00:57:19;;;;;;;71.90;29.13;;;;;;;11.74;68.10;103321.44;687803;28;1318;-76
2021/12/17 00:57:42;;;;;;;76.85;30.48;;;;;;;11.70;68.09;103314.22;688970;28;815;-77
2021/12/17 00:58:03;;;;;;;79.00;32.00;;;;;;;11.61;67.98;103309.25;688102;28;1054;-77
2021/12/17 00:58:23;;;;;;;79.85;32.22;;;;;;;11.62;67.98;103310.19;688015;28;1080;-77
2021/12/17 00:58:45;;;;;;;79.60;32.97;;;;;;;11.63;67.91;103306.75;688001;28;1090;-76
2021/12/17 00:59:06;;;;;;;79.30;32.63;;;;;;;11.63;67.99;103309.38;687001;28;1481;-77
2021/12/17 00:59:27;;;;;;;76.60;31.65;;;;;;;11.64;67.88;103306.88;684809;28;1883;-77
2021/12/17 00:59:51;;;;;;;74.57;31.33;;;;;;;11.64;68.15;103313.78;684552;28;1221;-77
2021/12/17 01:00:19;;;;;;;74.90;32.17;;;;;;;11.56;67.91;103304.56;682906;28;1337;-77
2021/12/17 01:00:40;;;;;;;76.97;32.53;;;;;;;11.60;68.02;103315.31;690810;28;1209;-77
2021/12/17 01:01:02;;;;;;;79.68;33.45;;;;;;;11.62;68.18;103318.03;690715;28;949;-77
2021/12/17 01:01:24;;;;;;;78.35;33.15;;;;;;;11.63;68.22;103315.50;689566;28;1336;-77
2021/12/17 01:01:46;;;;;;;78.60;32.42;;;;;;;11.59;67.96;103308.28;691504;28;1624;-76
2021/12/17 01:02:15;;;;;;;78.82;31.60;;;;;;;11.66;67.94;103322.66;688040;28;1271;-77
2021/12/17 01:02:37;;;;;;;80.65;32.15;;;;;;;11.65;68.09;103318.25;683069;28;832;-76
2021/12/17 01:02:58;;;;;;;78.10;32.28;;;;;;;11.65;67.98;103324.41;685499;28;910;-76
2021/12/17 01:03:19;;;;;;;76.20;31.27;;;;;;;11.57;68.08;103298.50;685877;28;1439;-76
2021/12/17 01:03:40;;;;;;;79.53;31.50;;;;;;;11.62;68.30;103315.41;684594;28;1583;-76
2021/12/17 01:04:02;;;;;;;78.47;30.85;;;;;;;11.60;68.35;103306.53;682555;28;1370;-77
2021/12/17 01:04:24;;;;;;;72.65;29.92;;;;;;;11.57;68.12;103299.44;688389;28;1962;-76
2021/12/17 01:04:54;;;;;;;66.83;29.20;;;;;;;11.66;67.97;103314.81;688147;28;762;-76
2021/12/17 01:05:19;;;;;;;77.20;30.75;;;;;;;11.58;68.03;103290.78;683738;28;2031;-77
2021/12/17 01:05:42;;;;;;;86.80;31.58;;;;;;;11.62;68.09;103299.72;690757;28;767;-76
2021/12/17 01:06:03;;;;;;;82.45;31.55;;;;;;;11.69;67.98;103309.81;687920;28;1102;-77
2021/12/17 01:06:24;;;;;;;80.85;32.10;;;;;;;11.64;67.95;103301.63;691403;28;1127;-77
2021/12/17 01:06:45;;;;;;;79.97;32.28;;;;;;;11.68;68.09;103301.84;690797;28;1157;-76
2021/12/17 01:07:07;;;;;;;81.47;32.65;;;;;;;11.66;67.90;103301.75;690769;28;1005;-77
2021/12/17 01:07:31;;;;;;;80.40;31.95;;;;;;;11.67;68.13;103306.16;688105;28;1088;-77
2021/12/17 01:07:56;;;;;;;83.00;31.80;;;;;;;11.68;68.14;103304.47;690823;28;1283;-77
2021/12/17 01:08:17;;;;;;;83.25;33.38;;;;;;;11.68;68.05;103312.31;685212;28;1278;-77
2021/12/17 01:08:38;;;;;;;84.97;33.10;;;;;;;11.69;67.89;103307.19;688085;28;1216;-77
2021/12/17 01:09:06;;;;;;;84.07;33.03;;;;;;;11.66;68.25;103291.28;684860;28;1481;-77
2021/12/17 01:09:27;;;;;;;81.65;32.95;;;;;;;11.68;67.97;103300.13;687810;28;1601;-77
2021/12/17 01:09:49;;;;;;;82.47;32.22;;;;;;;11.63;68.29;103291.06;688922;28;1264;-77
2021/12/17 01:10:15;;;;;;;81.25;31.45;;;;;;;11.64;68.05;103293.78;687925;28;1133;-77
2021/12/17 01:10:51;;;;;;;77.13;31.88;;;;;;;11.69;68.17;103304.56;690794;28;892;-77
2021/12/17 01:11:30;;;;;;;86.72;33.72;;;;;;;11.70;68.08;103309.00;687959;28;1202;-77
2021/12/17 01:12:07;;;;;;;91.40;34.92;;;;;;;11.65;67.96;103302.56;684313;28;1859;-77
2021/12/17 01:12:47;;;;;;;88.75;35.03;;;;;;;11.69;68.19;103303.66;688918;28;851;-77
2021/12/17 01:13:26;;;;;;;98.05;34.42;;;;;;;11.64;67.94;103295.47;692873;28;1147;-77
2021/12/17 01:14:10;;;;;;;96.05;34.20;;;;;;;11.64;68.15;103300.72;693891;28;2788;-76
2021/12/17 01:14:51;;;;;;;88.88;34.55;;;;;;;11.65;68.08;103306.09;692693;28;1705;-77
2021/12/17 01:15:19;;;;;;;89.38;34.38;;;;;;;11.59;67.88;103296.88;686618;28;2530;-77
2021/12/17 01:15:58;;;;;;;85.07;33.90;;;;;;;11.57;68.20;103302.03;685184;28;2646;-76
2021/12/17 01:16:27;;;;;;;91.65;34.10;;;;;;;11.58;68.36;103316.00;686287;28;2323;-77
2021/12/17 01:17:00;;;;;;;100.32;36.10;;;;;;;11.50;68.14;103294.59;690524;28;1126;-77
2021/12/17 01:17:33;;;;;;;94.50;36.13;;;;;;;11.49;68.22;103301.53;685253;28;839;-77
2021/12/17 01:18:16;;;;;;;92.07;36.35;;;;;;;11.51;68.21;103305.13;685322;28;1104;-77
2021/12/17 01:21:20;;;;;;;106.78;36.92;;;;;;;11.41;68.34;103286.16;689461;28;839;-77
2021/12/17 01:22:41;;;;;;;108.00;37.28;;;;;;;11.42;68.55;103293.19;690375;28;1210;-77
2021/12/17 01:23:40;;;;;;;114.30;38.17;;;;;;;11.47;68.38;103292.69;687631;28;1449;-77
2021/12/17 01:24:31;;;;;;;109.15;37.03;;;;;;;11.47;68.52;103289.16;687358;28;1565;-76
2021/12/17 01:25:05;;;;;;;102.97;35.97;;;;;;;11.46;68.54;103295.19;685639;28;891;-77
2021/12/17 01:35:19;;;;;;;108.50;37.88;;;;;;;11.42;68.44;103288.84;689277;28;1116;-77
2021/12/17 01:35:49;;;;;;;104.90;37.53;;;;;;;11.49;68.53;103301.53;685591;28;1914;-76
2021/12/17 01:36:15;;;;;;;104.70;36.65;;;;;;;11.48;68.80;103293.56;683706;28;1105;-76
2021/12/17 01:36:36;;;;;;;108.40;37.93;;;;;;;11.50;68.57;103297.22;685299;28;1157;-77
2021/12/17 01:37:36;;;;;;;109.20;38.40;;;;;;;11.54;68.43;103306.16;684300;28;1469;-77
2021/12/17 01:38:41;;;;;;;101.80;36.28;;;;;;;11.50;68.82;103292.00;685334;28;1290;-77
2021/12/17 01:42:04;;;;;;;104.82;37.25;;;;;;;11.49;68.43;103287.56;688158;28;1477;-77
2021/12/17 01:42:25;;;;;;;105.78;37.30;;;;;;;11.51;68.60;103289.44;687788;28;1096;-77
2021/12/17 01:42:46;;;;;;;110.22;38.88;;;;;;;11.46;68.33;103293.50;684652;28;1865;-77
2021/12/17 01:43:07;;;;;;;111.77;38.90;;;;;;;11.54;68.61;103298.31;685080;28;1114;-77
2021/12/17 01:43:33;;;;;;;114.35;38.42;;;;;;;11.49;68.63;103291.06;690087;28;1154;-76
2021/12/17 01:43:54;;;;;;;113.78;36.20;;;;;;;11.47;68.51;103289.16;690625;28;1353;-76
2021/12/17 01:44:16;;;;;;;105.55;35.63;;;;;;;11.49;68.39;103296.28;687697;28;1104;-77
2021/12/17 01:44:40;;;;;;;107.85;36.95;;;;;;;11.58;68.38;103308.16;688021;28;1254;-77
2021/12/17 01:45:01;;;;;;;111.50;36.22;;;;;;;11.48;68.44;103299.72;687905;28;989;-77
2021/12/17 01:45:28;;;;;;;115.80;36.40;;;;;;;11.42;68.75;103281.00;687917;28;1044;-77
2021/12/17 01:45:49;;;;;;;110.57;35.92;;;;;;;11.41;68.38;103292.28;684581;28;1101;-77
2021/12/17 01:46:19;;;;;;;109.82;37.22;;;;;;;11.46;68.72;103289.97;684760;28;1771;-77
2021/12/17 01:46:42;;;;;;;117.60;39.47;;;;;;;11.43;68.49;103288.03;688843;28;862;-76
2021/12/17 01:47:06;;;;;;;119.18;39.33;;;;;;;11.46;68.78;103290.88;691767;28;1242;-77
2021/12/17 01:47:27;;;;;;;111.60;36.85;;;;;;;11.43;68.55;103284.53;689806;28;1103;-77
2021/12/17 01:47:47;;;;;;;105.57;34.92;;;;;;;11.46;68.45;103289.97;690610;28;1053;-77
2021/12/17 01:48:18;;;;;;;108.77;35.60;;;;;;;11.44;68.56;103283.75;689402;28;1115;-77
2021/12/17 01:56:52;;;;;;;113.30;35.97;;;;;;;11.41;68.81;103292.28;685332;28;862;-76
2021/12/17 01:59:38;;;;;;;98.45;33.92;;;;;;;11.38;68.75;103298.22;679816;29;886;-76
2021/12/17 02:00:17;;;;;;;94.60;34.53;;;;;;;11.46;68.55;103308.28;686278;28;1258;-77
2021/12/17 02:00:40;;;;;;;96.97;35.85;;;;;;;11.40;68.93;103298.31;685335;28;835;-77
2021/12/17 02:01:05;;;;;;;104.28;36.05;;;;;;;11.45;68.99;103310.00;687955;28;1164;-77
2021/12/17 02:01:27;;;;;;;103.25;35.67;;;;;;;11.36;68.82;103298.91;687644;28;1329;-77
2021/12/17 02:01:48;;;;;;;95.07;34.95;;;;;;;11.37;68.76;103295.53;687098;28;1270;-77
2021/12/17 02:02:09;;;;;;;93.00;34.65;;;;;;;11.43;69.07;103300.22;687750;28;1070;-77
2021/12/17 02:02:37;;;;;;;98.03;34.42;;;;;;;11.47;69.02;103308.38;685299;28;1138;-77
2021/12/17 02:03:01;;;;;;;101.18;35.22;;;;;;;11.40;68.64;103295.72;682643;29;973;-77
2021/12/17 02:03:26;;;;;;;101.80;36.55;;;;;;;11.42;69.03;103307.16;681577;29;1293;-77
2021/12/17 02:03:47;;;;;;;98.25;36.53;;;;;;;11.41;68.68;103307.97;685221;28;1230;-76
2021/12/17 02:04:07;;;;;;;93.77;35.23;;;;;;;11.38;68.75;103292.09;684860;28;1539;-77
2021/12/17 02:04:30;;;;;;;93.75;35.00;;;;;;;11.42;68.68;103304.53;679823;29;1377;-76
2021/12/17 02:04:50;;;;;;;99.75;35.63;;;;;;;11.42;68.73;103301.94;690317;28;756;-76
2021/12/17 02:05:13;;;;;;;100.97;35.47;;;;;;;11.43;68.72;103308.09;690247;28;1214;-77
2021/12/17 02:05:34;;;;;;;97.47;35.15;;;;;;;11.42;68.92;103301.94;688040;28;923;-76
2021/12/17 02:05:55;;;;;;;90.70;33.83;;;;;;;11.41;68.90;103300.13;687939;28;835;-77
2021/12/17 02:06:17;;;;;;;90.15;34.28;;;;;;;11.40;68.87;103306.16;687722;28;1752;-76
2021/12/17 02:06:39;;;;;;;95.05;34.55;;;;;;;11.45;68.72;103306.47;688454;28;1116;-77
2021/12/17 02:07:00;;;;;;;95.07;34.35;;;;;;;11.43;68.63;103301.13;688068;28;811;-76
2021/12/17 02:07:21;;;;;;;88.68;33.04;;;;;;;11.51;68.59;103320.84;685204;28;1112;-77
2021/12/17 02:07:43;;;;;;;85.33;32.73;;;;;;;11.46;68.73;103306.56;682631;29;792;-77
2021/12/17 02:08:05;;;;;;;85.72;32.47;;;;;;;11.45;68.67;103304.75;684946;28;1253;-76
2021/12/17 02:08:29;;;;;;;83.60;32.05;;;;;;;11.46;68.82;103306.56;687924;28;1111;-77
2021/12/17 02:08:52;;;;;;;90.90;33.23;;;;;;;11.43;68.81;103305.47;688827;28;1712;-77
2021/12/17 02:28:40;;;;;;;66.35;28.80;;;;;;;11.29;69.29;103307.19;689852;28;1206;-76
2021/12/17 02:31:16;;;;;;;64.25;29.05;;;;;;;11.35;69.03;103312.78;686592;28;1049;-76
2021/12/17 02:31:33;;;;;;;72.57;28.67;;;;;;;11.37;68.77;103316.44;687303;28;1639;-77
2021/12/17 02:31:59;;;;;;;65.20;28.60;;;;;;;11.35;69.10;103302.34;688808;28;1654;-76
2021/12/17 02:32:24;;;;;;;63.75;28.83;;;;;;;11.48;68.79;103318.03;685505;28;1197;-77
2021/12/17 02:32:47;;;;;;;66.65;28.88;;;;;;;11.46;68.85;103309.19;689301;28;1264;-76
2021/12/17 02:33:08;;;;;;;66.35;28.75;;;;;;;11.48;68.70;103304.03;693121;28;1230;-77
2021/12/17 02:33:29;;;;;;;62.33;27.30;;;;;;;11.50;68.51;103303.34;687234;28;1155;-77
2021/12/17 02:33:50;;;;;;;61.28;28.35;;;;;;;11.52;68.75;103306.06;689706;28;800;-76
2021/12/17 02:35:34;;;;;;;70.95;28.20;;;;;;;11.53;68.35;103307.88;686558;28;1050;-76
2021/12/17 02:35:55;;;;;;;71.60;27.95;;;;;;;11.49;68.46;103295.41;686110;28;1891;-77
2021/12/17 02:36:19;;;;;;;68.87;27.63;;;;;;;11.38;68.50;103297.31;678150;29;1070;-76
2021/12/17 02:36:40;;;;;;;66.97;28.35;;;;;;;11.45;68.74;103310.00;683819;28;862;-77
2021/12/17 02:37:08;;;;;;;66.50;29.52;;;;;;;11.39;68.77;103301.75;690672;28;1393;-77
2021/12/17 02:37:52;;;;;;;61.45;27.85;;;;;;;11.36;68.70;103296.28;690105;28;1150;-77
2021/12/17 02:38:40;;;;;;;63.20;27.25;;;;;;;11.40;68.60;103306.16;687240;28;1494;-77
2021/12/17 02:45:31;;;;;;;66.57;29.33;;;;;;;11.47;68.21;103307.47;690481;28;1244;-77
2021/12/17 02:45:46;;;;;;;59.08;27.27;;;;;;;11.51;68.13;103299.91;692101;28;1124;-77
2021/12/17 02:46:07;;;;;;;64.35;28.35;;;;;;;11.52;68.32;103304.38;682951;28;1674;-77
2021/12/17 02:46:27;;;;;;;65.27;28.00;;;;;;;11.52;68.18;103306.06;684916;28;1649;-76
2021/12/17 02:46:48;;;;;;;64.82;28.20;;;;;;;11.51;67.91;103299.91;685217;28;835;-77
2021/12/17 02:47:09;;;;;;;63.42;28.25;;;;;;;11.61;68.44;103311.00;684943;28;1197;-77
2021/12/17 02:47:30;;;;;;;63.20;28.48;;;;;;;11.54;68.30;103301.81;684943;28;1079;-76
2021/12/17 02:47:59;;;;;;;66.97;28.63;;;;;;;11.55;68.22;103294.91;686262;28;1414;-76
2021/12/17 02:48:23;;;;;;;62.90;28.05;;;;;;;11.55;68.32;103297.50;686026;28;1430;-77
2021/12/17 02:48:44;;;;;;;62.42;28.35;;;;;;;11.60;67.98;103306.53;683932;28;1517;-77
2021/12/17 02:49:07;;;;;;;65.13;28.50;;;;;;;11.55;68.14;103295.78;687276;28;1187;-76
2021/12/17 02:49:29;;;;;;;65.55;28.50;;;;;;;11.56;68.08;103302.81;684517;28;1158;-76
2021/12/17 02:49:50;;;;;;;62.50;28.85;;;;;;;11.61;68.21;103300.53;687797;28;1244;-77
2021/12/17 02:50:11;;;;;;;59.97;28.02;;;;;;;11.60;68.19;103297.00;684829;28;1288;-77
2021/12/17 02:50:41;;;;;;;62.47;27.88;;;;;;;11.56;67.92;103302.81;682543;29;1226;-77
2021/12/17 02:51:02;;;;;;;66.43;28.00;;;;;;;11.60;68.05;103302.22;687726;28;2070;-76
2021/12/17 02:51:23;;;;;;;65.18;28.63;;;;;;;11.60;68.08;103299.59;687693;28;1360;-76
2021/12/17 02:51:43;;;;;;;61.97;27.95;;;;;;;11.61;67.95;103295.31;689164;28;820;-77
2021/12/17 02:52:06;;;;;;;63.08;27.98;;;;;;;11.58;68.02;103296.00;684919;28;1161;-77
2021/12/17 02:52:29;;;;;;;65.35;27.17;;;;;;;11.59;67.93;103295.19;684492;28;1650;-77
2021/12/17 02:52:53;;;;;;;63.33;27.23;;;;;;;11.58;67.91;103292.47;689608;28;1861;-76
2021/12/17 02:53:15;;;;;;;66.63;28.60;;;;;;;11.62;68.23;103299.72;688198;28;1361;-77
2021/12/17 02:53:36;;;;;;;62.92;27.52;;;;;;;11.62;67.94;103297.09;690551;28;862;-77
2021/12/17 02:53:59;;;;;;;58.45;26.83;;;;;;;11.71;67.86;103313.41;687769;28;791;-77
2021/12/17 02:54:19;;;;;;;53.03;26.23;;;;;;;11.65;67.95;103307.78;688514;28;1556;-77
2021/12/17 02:54:41;;;;;;;55.20;27.17;;;;;;;11.68;68.01;103310.59;690556;28;1428;-76
2021/12/17 02:55:05;;;;;;;59.92;27.77;;;;;;;11.62;67.86;103299.72;685988;28;1228;-77
2021/12/17 02:55:27;;;;;;;63.42;28.48;;;;;;;11.65;67.82;103310.41;685926;28;1333;-77
2021/12/17 02:56:07;;;;;;;63.62;28.46;;;;;;;11.70;67.92;103311.63;689357;28;1965;-77
2021/12/17 02:56:27;;;;;;;60.28;28.60;;;;;;;11.67;67.90;103310.50;684905;28;1061;-77
2021/12/17 02:56:48;;;;;;;59.15;28.08;;;;;;;11.68;67.96;103307.97;689636;28;1172;-77
2021/12/17 02:57:11;;;;;;;58.70;27.73;;;;;;;11.69;67.86;103306.28;687722;28;1060;-77
2021/12/17 02:57:34;;;;;;;64.60;28.63;;;;;;;11.69;68.02;103309.81;685165;28;1147;-77
2021/12/17 02:57:56;;;;;;;67.10;28.75;;;;;;;11.65;68.02;103300.84;682465;29;942;-77
2021/12/17 02:58:17;;;;;;;71.35;28.88;;;;;;;11.70;67.86;103310.69;685981;28;1158;-76
2021/12/17 02:58:38;;;;;;;66.40;27.85;;;;;;;11.71;67.79;103313.41;685686;28;826;-77
2021/12/17 02:59:00;;;;;;;65.20;27.85;;;;;;;11.75;67.73;103311.91;690647;28;838;-77
2021/12/17 02:59:22;;;;;;;58.63;26.73;;;;;;;11.73;67.99;103316.16;686572;28;1229;-76
2021/12/17 02:59:43;;;;;;;62.03;27.33;;;;;;;11.72;67.88;103310.00;687802;28;1806;-76
2021/12/17 03:00:07;;;;;;;58.05;25.98;;;;;;;11.78;67.88;103314.69;685038;28;1434;-77
2021/12/17 03:00:28;;;;;;;55.72;25.77;;;;;;;11.75;67.87;103312.78;687072;28;1131;-77
2021/12/17 03:00:50;;;;;;;57.97;26.38;;;;;;;11.70;67.70;103306.38;687050;28;827;-77
2021/12/17 03:01:12;;;;;;;61.65;27.15;;;;;;;11.73;67.73;103306.56;684989;28;1651;-77
2021/12/17 03:01:33;;;;;;;64.32;27.80;;;;;;;11.74;67.77;103308.38;687513;28;1162;-77
2021/12/17 03:01:55;;;;;;;63.22;27.83;;;;;;;11.73;67.85;103306.56;687768;28;803;-76
2021/12/17 03:02:18;;;;;;;63.72;28.00;;;;;;;11.73;67.80;103303.94;687566;28;1165;-77
2021/12/17 03:02:40;;;;;;;65.00;28.25;;;;;;;11.75;67.40;103309.28;685336;28;1460;-77
2021/12/17 03:03:03;;;;;;;69.15;28.27;;;;;;;11.70;67.94;103302.84;690425;28;991;-77
2021/12/17 03:03:26;;;;;;;66.00;27.70;;;;;;;11.79;67.92;103319.13;685492;28;1061;-77
2021/12/17 03:03:52;;;;;;;63.95;27.10;;;;;;;11.71;67.99;103302.97;689594;28;1372;-77
2021/12/17 03:04:13;;;;;;;60.83;26.77;;;;;;;11.72;67.54;103304.75;690317;28;1944;-77
2021/12/17 03:04:37;;;;;;;58.67;26.73;;;;;;;11.74;67.82;103311.00;687811;28;1314;-77
2021/12/17 03:04:58;;;;;;;56.78;25.60;;;;;;;11.79;67.92;103319.13;687766;28;1271;-77
2021/12/17 03:05:19;;;;;;;53.72;23.90;;;;;;;11.74;67.98;103308.38;690414;28;1560;-76
2021/12/17 03:05:41;;;;;;;57.50;25.88;;;;;;;11.73;67.89;103306.56;687856;28;832;-77
2021/12/17 03:06:02;;;;;;;56.20;26.00;;;;;;;11.76;67.99;103309.41;690239;28;1333;-77
2021/12/17 03:06:23;;;;;;;57.17;26.40;;;;;;;11.74;67.71;103307.47;686259;28;1071;-77
2021/12/17 03:06:45;;;;;;;55.33;25.45;;;;;;;11.79;67.71;103312.19;682576;29;823;-77
2021/12/17 03:07:09;;;;;;;55.72;25.08;;;;;;;11.75;67.64;103310.19;684973;28;1140;-77
2021/12/17 03:07:30;;;;;;;56.28;24.92;;;;;;;11.74;67.93;103303.13;684964;28;1131;-77
2021/12/17 03:07:51;;;;;;;56.75;25.55;;;;;;;11.76;67.65;103309.41;686162;28;1719;-77
2021/12/17 03:08:15;;;;;;;52.72;25.15;;;;;;;11.72;67.97;103296.91;682285;29;1263;-77
2021/12/17 03:08:36;;;;;;;55.70;26.17;;;;;;;11.78;68.07;103312.09;685647;28;799;-77
2021/12/17 03:08:57;;;;;;;60.60;26.95;;;;;;;11.77;67.79;103307.66;686125;28;1438;-77
2021/12/17 03:09:24;;;;;;;57.67;26.37;;;;;;;11.76;67.80;103301.56;685045;28;1116;-76
2021/12/17 03:10:02;;;;;;;55.10;26.27;;;;;;;11.83;67.89;103317.63;683856;28;900;-77
2021/12/17 03:10:24;;;;;;;56.45;26.35;;;;;;;11.79;67.69;103306.97;685118;28;1049;-77
2021/12/17 03:10:48;;;;;;;56.92;25.65;;;;;;;11.78;67.49;103305.16;689255;28;1477;-77
2021/12/17 03:11:09;;;;;;;56.25;25.13;;;;;;;11.80;67.75;103318.31;680058;29;1715;-77
2021/12/17 03:11:30;;;;;;;53.83;24.50;;;;;;;11.77;67.80;103311.19;687902;28;867;-77
2021/12/17 03:11:50;;;;;;;54.90;24.87;;;;;;;11.75;67.91;103299.72;690509;28;1202;-77
2021/12/17 03:12:20;;;;;;;56.63;25.02;;;;;;;11.72;67.88;103307.38;687802;28;981;-77
2021/12/17 03:12:48;;;;;;;55.80;25.20;;;;;;;11.69;67.80;103309.81;683457;28;878;-77
2021/12/17 03:13:11;;;;;;;56.75;25.90;;;;;;;11.71;67.94;103310.81;679657;28;1787;-76
2021/12/17 03:13:34;;;;;;;61.72;27.17;;;;;;;11.67;67.83;103306.16;685596;28;1215;-77
2021/12/17 03:13:55;;;;;;;60.95;27.60;;;;;;;11.63;67.75;103304.13;687834;28;894;-77
2021/12/17 03:14:15;;;;;;;59.83;27.35;;;;;;;11.63;67.68;103309.38;684462;28;1292;-77
2021/12/17 03:14:46;;;;;;;56.10;25.80;;;;;;;11.59;68.00;103307.34;685044;28;1345;-76
2021/12/17 03:16:29;;;;;;;54.50;25.38;;;;;;;11.59;68.26;103304.72;686662;28;1255;-76
2021/12/17 03:17:01;;;;;;;53.08;25.58;;;;;;;11.60;68.09;103298.69;685819;28;855;-77
2021/12/17 03:17:45;;;;;;;54.53;25.48;;;;;;;11.61;68.08;103304.03;693769;28;1059;-77
2021/12/17 03:19:02;;;;;;;54.22;25.10;;;;;;;11.59;68.05;103297.81;687714;28;1022;-77
2021/12/17 03:23:26;;;;;;;53.67;24.55;;;;;;;11.64;68.24;103301.63;687473;28;1298;-76
2021/12/17 03:23:49;;;;;;;53.58;26.08;;;;;;;11.77;67.85;103320.75;687013;28;826;-76
2021/12/17 03:24:18;;;;;;;59.17;26.17;;;;;;;11.71;68.04;103313.41;687239;28;1150;-76
2021/12/17 03:24:39;;;;;;;63.03;27.80;;;;;;;11.69;68.19;103304.56;684976;28;849;-76
2021/12/17 03:24:59;;;;;;;61.22;27.88;;;;;;;11.68;67.80;103302.75;685041;28;1266;-77
2021/12/17 03:25:20;;;;;;;57.30;27.37;;;;;;;11.73;67.83;103308.28;684978;28;1120;-77
2021/12/17 03:25:40;;;;;;;56.92;26.67;;;;;;;11.68;67.93;103307.97;685226;28;1171;-77
2021/12/17 03:26:09;;;;;;;58.70;26.25;;;;;;;11.69;67.64;103308.88;682013;28;1636;-77
2021/12/17 03:26:30;;;;;;;61.25;25.42;;;;;;;11.69;67.91;103308.88;682406;29;1161;-77
2021/12/17 03:26:52;;;;;;;57.60;25.15;;;;;;;11.68;67.88;103300.13;684926;28;1963;-76
2021/12/17 03:27:14;;;;;;;50.92;23.85;;;;;;;11.70;68.04;103302.84;684880;28;1785;-77
2021/12/17 03:27:34;;;;;;;50.20;24.30;;;;;;;11.71;68.06;103302.97;687957;28;1197;-77
2021/12/17 03:27:55;;;;;;;50.58;24.48;;;;;;;11.64;67.94;103295.47;693211;28;1380;-77
2021/12/17 03:28:16;;;;;;;54.10;25.33;;;;;;;11.66;67.83;103299.13;687001;28;1115;-76
2021/12/17 03:28:39;;;;;;;54.80;25.00;;;;;;;11.70;68.00;103306.38;687986;28;1153;-76
2021/12/17 03:29:04;;;;;;;56.78;25.38;;;;;;;11.71;67.75;103308.19;686999;28;1355;-77
2021/12/17 03:29:26;;;;;;;53.20;24.27;;;;;;;11.75;68.08;103315.41;689098;28;1170;-77
2021/12/17 03:29:54;;;;;;;54.58;25.10;;;;;;;11.65;67.89;103297.31;687757;28;1206;-77
2021/12/17 03:30:14;;;;;;;53.93;25.93;;;;;;;11.67;67.93;103298.31;687775;28;1301;-76
2021/12/17 03:30:36;;;;;;;55.23;26.07;;;;;;;11.69;67.75;103299.34;685217;28;1320;-76
2021/12/17 03:30:57;;;;;;;53.50;26.33;;;;;;;11.72;67.96;103307.38;687568;28;1369;-76